createdAt,value
2017-11-07T00:02:17.960Z,23.20
2017-11-07T00:04:52.391Z,20.63
2017-11-07T00:07:27.631Z,20.63
2017-11-07T00:10:01.904Z,20.90
2017-11-07T00:12:36.595Z,20.80
2017-11-07T00:15:11.099Z,21.20
2017-11-07T00:17:45.659Z,20.90
2017-11-07T00:20:20.175Z,21.40
2017-11-07T00:22:54.731Z,25.17
2017-11-07T00:25:30.007Z,23.30
2017-11-07T00:28:04.412Z,21.60
2017-11-07T00:30:38.864Z,22.80
2017-11-07T00:33:13.454Z,23.30
2017-11-07T00:35:48.015Z,23.70
2017-11-07T00:38:22.525Z,24.57
2017-11-07T00:40:56.806Z,25.07
2017-11-07T00:43:31.342Z,24.30
2017-11-07T00:46:05.755Z,26.77
2017-11-07T00:48:40.535Z,26.57
2017-11-07T00:51:15.125Z,26.30
2017-11-07T00:53:49.825Z,27.10
2017-11-07T00:56:24.315Z,26.20
2017-11-07T00:58:58.683Z,27.93
2017-11-07T01:01:33.209Z,27.77
2017-11-07T01:04:07.720Z,27.10
2017-11-07T01:06:42.541Z,27.13
2017-11-07T01:09:16.967Z,27.07
2017-11-07T01:11:51.447Z,26.37
2017-11-07T01:14:25.966Z,28.30
2017-11-07T01:17:00.468Z,25.30
2017-11-07T01:19:34.986Z,26.93
2017-11-07T01:22:09.367Z,27.53
2017-11-07T01:24:43.906Z,25.80
2017-11-07T01:27:18.423Z,26.87
2017-11-07T01:29:52.888Z,26.67
2017-11-07T01:32:27.290Z,27.40
2017-11-07T01:35:01.901Z,27.70
2017-11-07T01:37:36.335Z,28.47
2017-11-07T01:40:10.743Z,27.97
2017-11-07T01:42:45.168Z,27.40
2017-11-07T01:45:20.145Z,26.60
2017-11-07T01:47:54.574Z,27.10
2017-11-07T01:50:29.039Z,25.23
2017-11-07T01:53:03.513Z,26.20
2017-11-07T01:55:38.075Z,24.93
2017-11-07T01:58:13.295Z,27.23
2017-11-07T02:00:47.566Z,25.57
2017-11-07T02:03:22.984Z,27.60
2017-11-07T02:05:57.550Z,25.50
2017-11-07T02:08:32.095Z,24.10
2017-11-07T02:11:06.591Z,24.67
2017-11-07T02:13:41.194Z,25.90
2017-11-07T02:16:15.683Z,26.03
2017-11-07T02:18:50.195Z,28.97
2017-11-07T02:21:24.355Z,28.90
2017-11-07T02:23:58.415Z,29.00
2017-11-07T02:26:32.546Z,31.50
2017-11-07T02:29:07.132Z,27.97
2017-11-07T02:31:41.414Z,28.47
2017-11-07T02:34:16.610Z,28.50
2017-11-07T02:36:51.558Z,29.23
2017-11-07T02:39:26.098Z,29.23
2017-11-07T02:42:00.478Z,30.30
2017-11-07T02:44:35.031Z,32.57
2017-11-07T02:47:09.479Z,29.53
2017-11-07T02:49:44.003Z,31.83
2017-11-07T02:52:18.550Z,32.63
2017-11-07T02:54:53.056Z,31.70
2017-11-07T02:57:28.262Z,31.17
2017-11-07T03:00:02.751Z,33.10
2017-11-07T03:02:37.278Z,32.00
2017-11-07T03:05:12.420Z,34.07
2017-11-07T03:07:46.862Z,32.30
2017-11-07T03:10:21.310Z,33.00
2017-11-07T03:12:55.765Z,34.43
2017-11-07T03:15:30.181Z,32.93
2017-11-07T03:18:04.608Z,33.13
2017-11-07T03:20:39.067Z,31.60
2017-11-07T03:23:13.678Z,32.30
2017-11-07T03:25:48.082Z,34.20
2017-11-07T03:28:22.830Z,32.50
2017-11-07T03:30:57.491Z,34.13
2017-11-07T03:33:32.011Z,32.93
2017-11-07T03:36:06.466Z,32.97
2017-11-07T03:38:41.061Z,31.83
2017-11-07T03:41:15.523Z,32.00
2017-11-07T03:43:50.071Z,34.10
2017-11-07T03:46:25.047Z,35.90
2017-11-07T03:48:59.468Z,35.27
2017-11-07T03:51:34.064Z,34.77
2017-11-07T03:54:08.482Z,34.50
2017-11-07T03:56:42.930Z,38.13
2017-11-07T03:59:17.345Z,35.63
2017-11-07T04:01:51.876Z,35.17
2017-11-07T04:04:26.347Z,35.37
2017-11-07T04:07:00.964Z,36.13
2017-11-07T04:09:35.615Z,33.70
2017-11-07T04:12:10.034Z,35.47
2017-11-07T04:14:45.147Z,34.50
2017-11-07T04:17:19.782Z,37.40
2017-11-07T04:19:54.302Z,39.20
2017-11-07T04:22:28.746Z,40.30
2017-11-07T04:25:03.188Z,38.00
2017-11-07T04:27:37.691Z,39.70
2017-11-07T04:30:12.210Z,38.43
2017-11-07T04:32:46.838Z,35.87
2017-11-07T04:35:21.230Z,38.37
2017-11-07T04:37:55.819Z,38.50
2017-11-07T04:40:30.270Z,40.77
2017-11-07T04:43:04.830Z,39.07
2017-11-07T04:45:39.287Z,39.03
2017-11-07T04:48:13.787Z,38.80
2017-11-07T04:50:48.266Z,36.70
2017-11-07T04:53:22.808Z,36.87
2017-11-07T04:55:57.247Z,37.73
2017-11-07T04:58:31.688Z,39.43
2017-11-07T05:01:06.258Z,37.47
2017-11-07T05:03:40.884Z,37.73
2017-11-07T05:06:15.282Z,37.37
2017-11-07T05:08:49.893Z,38.40
2017-11-07T05:11:24.287Z,37.03
2017-11-07T05:13:58.900Z,38.03
2017-11-07T05:16:34.142Z,37.83
2017-11-07T05:19:08.742Z,37.77
2017-11-07T05:21:43.195Z,36.70
2017-11-07T05:24:17.431Z,38.03
2017-11-07T05:26:52.083Z,39.17
2017-11-07T05:29:26.603Z,38.47
2017-11-07T05:32:01.194Z,36.17
2017-11-07T05:34:35.783Z,37.60
2017-11-07T05:37:10.299Z,34.57
2017-11-07T05:39:44.913Z,39.77
2017-11-07T05:42:19.289Z,41.40
2017-11-07T05:44:53.915Z,39.07
2017-11-07T05:47:28.918Z,39.10
2017-11-07T05:50:03.459Z,40.37
2017-11-07T05:52:37.862Z,39.93
2017-11-07T05:55:12.331Z,39.97
2017-11-07T05:57:47.806Z,40.03
2017-11-07T06:00:21.942Z,39.93
2017-11-07T06:02:56.539Z,41.50
2017-11-07T06:05:31.038Z,43.50
2017-11-07T06:08:05.574Z,38.10
2017-11-07T06:10:40.011Z,38.60
2017-11-07T06:13:14.558Z,42.03
2017-11-07T06:15:49.128Z,44.77
2017-11-07T06:18:23.572Z,40.80
2017-11-07T06:20:57.645Z,44.23
2017-11-07T06:23:32.047Z,43.40
2017-11-07T06:26:06.538Z,44.80
2017-11-07T06:28:40.881Z,43.90
2017-11-07T06:31:15.379Z,42.83
2017-11-07T06:33:50.030Z,44.30
2017-11-07T06:36:24.260Z,42.67
2017-11-07T06:38:58.771Z,42.00
2017-11-07T06:41:34.379Z,46.53
2017-11-07T06:44:09.022Z,43.70
2017-11-07T06:46:43.832Z,43.97
2017-11-07T06:49:18.354Z,44.90
2017-11-07T06:51:52.782Z,43.90
2017-11-07T06:54:27.238Z,44.87
2017-11-07T06:57:01.739Z,44.60
2017-11-07T06:59:36.261Z,44.80
2017-11-07T07:02:10.747Z,44.87
2017-11-07T07:04:45.806Z,45.47
2017-11-07T07:07:20.394Z,47.77
2017-11-07T07:09:54.991Z,50.20
2017-11-07T07:12:29.580Z,46.87
2017-11-07T07:15:04.207Z,45.20
2017-11-07T07:17:38.662Z,47.10
2017-11-07T07:20:13.079Z,52.87
2017-11-07T07:22:47.671Z,46.90
2017-11-07T07:25:22.273Z,46.70
2017-11-07T07:27:56.864Z,45.60
2017-11-07T07:30:31.274Z,48.00
2017-11-07T07:33:05.754Z,45.77
2017-11-07T07:35:40.143Z,46.53
2017-11-07T07:38:14.714Z,48.73
2017-11-07T07:40:49.434Z,48.13
2017-11-07T07:43:23.854Z,46.30
2017-11-07T07:45:58.657Z,50.17
2017-11-07T07:48:33.388Z,47.80
2017-11-07T07:51:07.923Z,46.50
2017-11-07T07:53:42.523Z,47.10
2017-11-07T07:56:17.137Z,48.33
2017-11-07T07:58:51.640Z,48.27
2017-11-07T08:01:26.519Z,44.90
2017-11-07T08:04:01.053Z,47.97
2017-11-07T08:06:35.146Z,49.47
2017-11-07T08:09:09.549Z,52.67
2017-11-07T08:11:43.690Z,46.10
2017-11-07T08:14:17.687Z,46.23
2017-11-07T08:16:52.174Z,48.87
2017-11-07T08:19:26.679Z,49.80
2017-11-07T08:22:01.163Z,49.53
2017-11-07T08:24:35.791Z,48.93
2017-11-07T08:27:10.281Z,45.53
2017-11-07T08:29:44.903Z,48.07
2017-11-07T08:32:19.314Z,48.40
2017-11-07T08:34:53.779Z,44.60
2017-11-07T08:37:28.222Z,47.10
2017-11-07T08:40:03.310Z,49.40
2017-11-07T08:42:42.023Z,48.40
2017-11-07T08:45:16.447Z,45.97
2017-11-07T08:47:50.826Z,49.03
2017-11-07T08:50:26.426Z,46.87
2017-11-07T08:53:01.617Z,48.63
2017-11-07T08:55:36.005Z,48.40
2017-11-07T08:58:10.452Z,50.70
2017-11-07T09:00:45.376Z,51.20
2017-11-07T09:03:19.949Z,43.63
2017-11-07T09:05:54.404Z,48.23
2017-11-07T09:08:28.935Z,48.60
2017-11-07T09:11:03.526Z,48.37
2017-11-07T09:13:37.970Z,48.87
2017-11-07T09:16:12.397Z,49.77
2017-11-07T09:18:47.019Z,45.60
2017-11-07T09:21:21.504Z,49.30
2017-11-07T09:23:56.070Z,50.80
2017-11-07T09:26:30.501Z,47.53
2017-11-07T09:29:04.993Z,45.50
2017-11-07T09:31:39.393Z,48.50
2017-11-07T09:34:13.919Z,47.43
2017-11-07T09:36:48.327Z,50.73
2017-11-07T09:39:22.958Z,52.70
2017-11-07T09:41:57.470Z,49.40
2017-11-07T09:44:32.642Z,49.37
2017-11-07T09:47:07.192Z,50.50
2017-11-07T09:49:41.699Z,50.40
2017-11-07T09:52:16.158Z,50.00
2017-11-07T09:54:50.955Z,51.03
2017-11-07T09:57:25.392Z,51.17
2017-11-07T09:59:59.990Z,48.17
2017-11-07T10:02:34.412Z,48.53
2017-11-07T10:05:14.585Z,49.67
2017-11-07T10:07:49.014Z,48.37
2017-11-07T10:10:23.511Z,48.47
2017-11-07T10:12:58.151Z,50.80
2017-11-07T10:15:32.574Z,46.20
2017-11-07T10:18:07.186Z,47.50
2017-11-07T10:20:41.684Z,45.83
2017-11-07T10:23:15.784Z,46.63
2017-11-07T10:25:50.210Z,45.47
2017-11-07T10:28:24.758Z,45.20
2017-11-07T10:30:59.041Z,43.23
2017-11-07T10:33:33.462Z,40.47
2017-11-07T10:36:07.575Z,44.20
2017-11-07T10:38:42.715Z,44.40
2017-11-07T10:41:17.275Z,44.53
2017-11-07T10:43:51.693Z,46.80
2017-11-07T10:46:26.150Z,42.30
2017-11-07T10:49:00.654Z,44.70
2017-11-07T10:51:35.199Z,43.50
2017-11-07T10:54:09.723Z,47.43
2017-11-07T10:56:44.229Z,48.27
2017-11-07T10:59:18.778Z,43.47
2017-11-07T11:01:53.564Z,44.10
2017-11-07T11:04:28.246Z,42.97
2017-11-07T11:07:02.858Z,43.53
2017-11-07T11:09:37.464Z,47.50
2017-11-07T11:12:11.875Z,40.87
2017-11-07T11:14:46.454Z,41.27
2017-11-07T11:17:20.862Z,44.80
2017-11-07T11:19:55.467Z,46.27
2017-11-07T11:22:29.906Z,43.13
2017-11-07T11:25:06.244Z,43.50
2017-11-07T11:27:40.875Z,42.63
2017-11-07T11:30:15.315Z,42.00
2017-11-07T11:32:49.894Z,45.60
2017-11-07T11:35:24.423Z,39.80
2017-11-07T11:37:59.720Z,41.83
2017-11-07T11:40:34.258Z,43.33
2017-11-07T11:43:08.806Z,43.87
2017-11-07T11:45:43.251Z,40.83
2017-11-07T11:48:17.886Z,41.53
2017-11-07T11:50:52.664Z,40.87
2017-11-07T11:53:27.088Z,42.93
2017-11-07T11:56:00.951Z,41.83
2017-11-07T11:58:35.488Z,37.87
2017-11-07T12:01:09.900Z,42.40
2017-11-07T12:03:44.404Z,39.70
2017-11-07T12:06:18.826Z,40.20
2017-11-07T12:08:53.478Z,38.30
2017-11-07T12:11:28.851Z,38.17
2017-11-07T12:14:03.338Z,39.57
2017-11-07T12:16:37.867Z,38.70
2017-11-07T12:19:12.407Z,37.73
2017-11-07T12:21:46.839Z,37.33
2017-11-07T12:24:21.878Z,33.47
2017-11-07T12:26:56.307Z,35.17
2017-11-07T12:29:30.951Z,36.10
2017-11-07T12:32:05.368Z,35.10
2017-11-07T12:34:39.899Z,39.17
2017-11-07T12:37:13.983Z,35.30
2017-11-07T12:39:48.550Z,33.30
2017-11-07T12:42:22.806Z,31.10
2017-11-07T12:44:57.395Z,33.10
2017-11-07T12:47:31.807Z,34.27
2017-11-07T12:50:17.317Z,34.40
2017-11-07T12:52:51.888Z,34.63
2017-11-07T12:55:26.359Z,34.17
2017-11-07T12:58:00.982Z,31.90
2017-11-07T13:00:35.460Z,29.30
2017-11-07T13:03:09.999Z,32.50
2017-11-07T13:05:44.419Z,30.00
2017-11-07T13:08:19.707Z,30.00
2017-11-07T13:10:54.298Z,31.70
2017-11-07T13:13:28.880Z,29.97
2017-11-07T13:16:04.060Z,29.03
2017-11-07T13:18:38.544Z,32.00
2017-11-07T13:21:13.443Z,33.10
2017-11-07T13:23:47.862Z,32.10
2017-11-07T13:26:22.395Z,32.80
2017-11-07T13:28:56.922Z,32.10
2017-11-07T13:31:31.502Z,32.57
2017-11-07T13:34:06.126Z,31.90
2017-11-07T13:36:40.586Z,32.20
2017-11-07T13:39:15.143Z,33.20
2017-11-07T13:41:49.652Z,34.47
2017-11-07T13:44:24.446Z,31.07
2017-11-07T13:46:58.694Z,32.23
2017-11-07T13:49:33.819Z,33.00
2017-11-07T13:52:08.373Z,29.77
2017-11-07T13:54:42.855Z,31.73
2017-11-07T13:57:17.414Z,32.00
2017-11-07T13:59:51.947Z,33.97
2017-11-07T14:02:26.443Z,34.10
2017-11-07T14:05:00.928Z,35.03
2017-11-07T14:07:35.364Z,33.17
2017-11-07T14:10:09.769Z,33.33
2017-11-07T14:12:44.186Z,32.50
2017-11-07T14:15:18.598Z,34.33
2017-11-07T14:17:52.983Z,35.63
2017-11-07T14:20:28.126Z,35.40
2017-11-07T14:23:02.558Z,35.57
2017-11-07T14:25:37.125Z,36.00
2017-11-07T14:28:11.652Z,33.20
2017-11-07T14:30:46.761Z,36.00
2017-11-07T14:33:21.406Z,35.87
2017-11-07T14:35:55.824Z,35.30
2017-11-07T14:38:30.375Z,33.17
2017-11-07T14:41:04.233Z,33.20
2017-11-07T14:43:38.892Z,35.90
2017-11-07T14:46:13.578Z,33.63
2017-11-07T14:48:48.295Z,33.67
2017-11-07T14:51:22.819Z,34.53
2017-11-07T14:53:57.377Z,37.97
2017-11-07T14:56:31.916Z,32.03
2017-11-07T14:59:06.296Z,33.40
2017-11-07T15:01:40.814Z,34.33
2017-11-07T15:04:16.191Z,34.80
2017-11-07T15:06:50.798Z,35.30
2017-11-07T15:09:25.347Z,33.57
2017-11-07T15:12:04.749Z,34.00
2017-11-07T15:14:40.763Z,33.17
2017-11-07T15:17:15.368Z,34.10
2017-11-07T15:19:50.091Z,35.20
2017-11-07T15:22:24.607Z,34.33
2017-11-07T15:24:59.254Z,34.57
2017-11-07T15:27:33.783Z,34.73
2017-11-07T15:30:14.646Z,35.17
2017-11-07T15:32:49.162Z,34.60
2017-11-07T15:35:23.678Z,35.40
2017-11-07T15:37:58.397Z,36.00
2017-11-07T15:40:34.237Z,35.40
2017-11-07T15:43:08.789Z,34.00
2017-11-07T15:45:43.226Z,32.40
2017-11-07T15:48:17.770Z,32.43
2017-11-07T15:50:52.951Z,35.53
2017-11-07T15:53:27.647Z,35.80
2017-11-07T15:56:03.395Z,34.60
2017-11-07T15:58:37.969Z,32.97
2017-11-07T16:01:12.410Z,34.63
2017-11-07T16:03:47.039Z,36.40
2017-11-07T16:06:24.474Z,32.53
2017-11-07T16:08:59.033Z,34.97
2017-11-07T16:11:34.483Z,35.83
2017-11-07T16:14:10.081Z,34.17
2017-11-07T16:16:44.562Z,31.40
2017-11-07T16:19:20.630Z,32.43
2017-11-07T16:21:57.872Z,33.77
2017-11-07T16:24:35.890Z,35.87
2017-11-07T16:27:11.651Z,33.93
2017-11-07T16:29:46.311Z,35.07
2017-11-07T16:32:20.762Z,34.47
2017-11-07T16:34:55.353Z,34.53
2017-11-07T16:37:30.567Z,33.17
2017-11-07T16:40:13.399Z,33.47
2017-11-07T16:42:47.635Z,33.10
2017-11-07T16:45:24.280Z,40.10
2017-11-07T16:48:00.124Z,39.40
2017-11-07T16:50:34.775Z,44.10
2017-11-07T16:53:09.974Z,35.43
2017-11-07T16:55:44.627Z,33.80
2017-11-07T16:58:19.148Z,33.40
2017-11-07T17:00:53.573Z,38.70
2017-11-07T17:03:28.469Z,35.20
2017-11-07T17:06:04.167Z,34.50
2017-11-07T17:08:38.749Z,33.70
2017-11-07T17:11:13.195Z,34.70
2017-11-07T17:13:47.774Z,33.40
2017-11-07T17:16:22.271Z,32.60
2017-11-07T17:18:56.765Z,35.20
2017-11-07T17:21:31.327Z,33.30
2017-11-07T17:24:06.446Z,34.30
2017-11-07T17:26:40.962Z,38.03
2017-11-07T17:29:15.605Z,36.50
2017-11-07T17:31:50.786Z,33.40
2017-11-07T17:34:25.388Z,37.40
2017-11-07T17:37:00.542Z,37.13
2017-11-07T17:39:34.970Z,35.67
2017-11-07T17:42:09.589Z,35.60
2017-11-07T17:44:44.106Z,35.50
2017-11-07T17:47:18.555Z,34.07
2017-11-07T17:49:53.156Z,33.87
2017-11-07T17:52:27.640Z,34.50
2017-11-07T17:55:02.192Z,32.67
2017-11-07T17:57:36.643Z,36.00
2017-11-07T18:00:11.144Z,34.57
2017-11-07T18:02:45.655Z,36.07
2017-11-07T18:05:20.059Z,36.23
2017-11-07T18:07:54.482Z,35.53
2017-11-07T18:10:28.954Z,37.73
2017-11-07T18:13:03.543Z,37.63
2017-11-07T18:15:38.039Z,38.30
2017-11-07T18:18:12.610Z,37.33
2017-11-07T18:20:47.299Z,37.20
2017-11-07T18:23:21.838Z,33.73
2017-11-07T18:25:56.242Z,32.40
2017-11-07T18:28:31.738Z,33.97
2017-11-07T18:31:07.202Z,35.90
2017-11-07T18:33:42.323Z,36.13
2017-11-07T18:36:16.711Z,38.07
2017-11-07T18:38:51.234Z,37.30
2017-11-07T18:41:25.647Z,32.60
2017-11-07T18:44:00.099Z,36.07
2017-11-07T18:46:34.591Z,44.40
2017-11-07T18:49:09.239Z,43.00
2017-11-07T18:51:43.745Z,37.77
2017-11-07T18:54:18.275Z,41.27
2017-11-07T18:56:52.730Z,38.90
2017-11-07T18:59:27.365Z,39.10
2017-11-07T19:02:01.758Z,45.67
2017-11-07T19:04:36.151Z,44.40
2017-11-07T19:07:10.650Z,41.93
2017-11-07T19:09:45.298Z,39.47
2017-11-07T19:12:20.019Z,39.47
2017-11-07T19:14:54.766Z,37.37
2017-11-07T19:17:29.388Z,42.60
2017-11-07T19:20:04.306Z,37.30
2017-11-07T19:22:38.908Z,37.40
2017-11-07T19:25:13.591Z,37.67
2017-11-07T19:27:48.138Z,37.07
2017-11-07T19:30:22.690Z,35.60
2017-11-07T19:32:57.107Z,38.63
2017-11-07T19:35:31.524Z,33.93
2017-11-07T19:38:06.084Z,36.07
2017-11-07T19:40:40.526Z,34.07
2017-11-07T19:43:15.830Z,35.37
2017-11-07T19:45:50.258Z,35.10
2017-11-07T19:48:24.854Z,36.57
2017-11-07T19:50:59.351Z,37.70
2017-11-07T19:53:33.890Z,36.07
2017-11-07T19:56:08.394Z,37.00
2017-11-07T19:58:42.926Z,38.47
2017-11-07T20:01:18.018Z,34.80
2017-11-07T20:03:53.295Z,37.23
2017-11-07T20:06:27.630Z,36.70
2017-11-07T20:09:02.122Z,37.20
2017-11-07T20:11:36.606Z,39.83
2017-11-07T20:14:11.166Z,37.30
2017-11-07T20:16:45.683Z,42.10
2017-11-07T20:19:20.303Z,34.03
2017-11-07T20:21:54.822Z,33.83
2017-11-07T20:24:29.410Z,34.90
2017-11-07T20:27:03.898Z,36.13
2017-11-07T20:29:38.508Z,35.13
2017-11-07T20:32:12.920Z,37.47
2017-11-07T20:34:48.065Z,34.33
2017-11-07T20:37:22.601Z,34.17
2017-11-07T20:39:57.198Z,37.00
2017-11-07T20:42:31.608Z,35.37
2017-11-07T20:45:09.026Z,37.20
2017-11-07T20:47:43.654Z,35.33
2017-11-07T20:50:18.040Z,35.93
2017-11-07T20:52:53.294Z,37.47
2017-11-07T20:55:30.249Z,41.20
2017-11-07T20:58:04.727Z,37.13
2017-11-07T21:00:39.206Z,39.00
2017-11-07T21:03:13.759Z,36.57
2017-11-07T21:05:48.282Z,38.47
2017-11-07T21:08:22.823Z,37.93
2017-11-07T21:10:57.882Z,36.03
2017-11-07T21:13:32.436Z,36.90
2017-11-07T21:16:07.090Z,38.33
2017-11-07T21:18:41.667Z,38.40
2017-11-07T21:21:16.211Z,39.87
2017-11-07T21:23:54.258Z,39.40
2017-11-07T21:26:29.926Z,43.20
2017-11-07T21:29:04.531Z,39.90
2017-11-07T21:31:39.736Z,41.60
2017-11-07T21:34:19.709Z,41.13
2017-11-07T21:36:54.234Z,39.10
2017-11-07T21:39:28.727Z,40.33
2017-11-07T21:42:03.152Z,40.53
2017-11-07T21:44:37.542Z,42.17
2017-11-07T21:47:12.044Z,41.53
2017-11-07T21:49:46.468Z,44.40
2017-11-07T21:52:20.974Z,43.40
2017-11-07T21:54:55.523Z,44.30
2017-11-07T21:57:30.551Z,43.50
2017-11-07T22:00:05.159Z,45.23
2017-11-07T22:02:39.690Z,46.20
2017-11-07T22:05:14.170Z,42.23
2017-11-07T22:07:48.645Z,45.40
2017-11-07T22:10:23.246Z,47.40
2017-11-07T22:12:57.802Z,47.03
2017-11-07T22:15:32.584Z,45.67
2017-11-07T22:18:10.905Z,45.43
2017-11-07T22:20:45.650Z,46.83
2017-11-07T22:23:25.961Z,45.93
2017-11-07T22:26:00.530Z,45.50
2017-11-07T22:28:34.871Z,44.20
2017-11-07T22:31:09.162Z,45.50
2017-11-07T22:33:43.823Z,44.17
2017-11-07T22:36:18.292Z,46.80
2017-11-07T22:38:52.936Z,43.53
2017-11-07T22:41:27.436Z,43.93
2017-11-07T22:44:01.647Z,48.47
2017-11-07T22:46:36.266Z,45.20
2017-11-07T22:49:10.862Z,46.10
2017-11-07T22:51:45.241Z,44.70
2017-11-07T22:54:19.775Z,44.33
2017-11-07T22:56:54.527Z,45.07
2017-11-07T22:59:29.037Z,43.23
2017-11-07T23:02:02.802Z,42.93
2017-11-07T23:04:37.192Z,46.37
2017-11-07T23:07:12.398Z,42.90
2017-11-07T23:09:46.936Z,45.60
2017-11-07T23:12:21.582Z,43.30
2017-11-07T23:14:56.115Z,47.07
2017-11-07T23:17:30.640Z,45.90
2017-11-07T23:20:04.899Z,48.57
2017-11-07T23:22:39.545Z,42.97
2017-11-07T23:25:14.002Z,44.70
2017-11-07T23:27:48.590Z,42.27
2017-11-07T23:30:23.198Z,43.70
2017-11-07T23:32:57.797Z,43.83
2017-11-07T23:35:32.296Z,41.13
2017-11-07T23:38:06.859Z,45.07
2017-11-07T23:40:41.571Z,43.27
2017-11-07T23:43:16.298Z,42.00
2017-11-07T23:45:50.776Z,43.10
2017-11-07T23:48:25.380Z,44.57
2017-11-07T23:51:02.598Z,42.70
2017-11-07T23:53:37.159Z,40.73
2017-11-07T23:56:11.733Z,41.00
2017-11-07T23:58:46.301Z,42.40
